Time;durP1;ratioP1;P1;durP2;ratioP2;P2;SDS_P1;SDS_P2;PMS_P1;PMS_P2;Temp;Humidity;BMP_temperature;BMP_pressure;BME280_temperature;BME280_humidity;BME280_pressure;Samples;Min_cycle;Max_cycle;Signal;HPM_P1;HPM_P2
2021/09/10 00:01:48;;;;;;;18.88;16.92;;;22.00;91.40;;;;;;5075816;28;20179;-63
2021/09/10 00:04:13;;;;;;;16.98;15.27;;;21.90;91.50;;;;;;5064622;28;20082;-62
2021/09/10 00:06:39;;;;;;;17.33;15.65;;;21.90;91.60;;;;;;5085411;28;20036;-61
2021/09/10 00:09:05;;;;;;;33.05;27.02;;;21.90;91.60;;;;;;5081942;28;20036;-62
2021/09/10 00:11:31;;;;;;;34.47;27.35;;;21.80;91.70;;;;;;5064602;28;20028;-61
2021/09/10 00:13:57;;;;;;;21.92;19.67;;;21.80;91.80;;;;;;5082589;28;20059;-61
2021/09/10 00:16:22;;;;;;;18.15;16.15;;;21.80;91.70;;;;;;5084535;28;20059;-61
2021/09/10 00:18:48;;;;;;;18.65;16.58;;;21.80;91.80;;;;;;5083794;28;20039;-61
2021/09/10 00:21:14;;;;;;;17.30;15.10;;;21.70;91.80;;;;;;5065967;28;20035;-62
2021/09/10 00:23:39;;;;;;;16.45;14.77;;;21.70;91.90;;;;;;5083381;28;20033;-62
2021/09/10 00:26:05;;;;;;;16.63;14.82;;;21.70;92.00;;;;;;5081496;28;20383;-62
2021/09/10 00:28:30;;;;;;;17.58;15.98;;;21.70;92.00;;;;;;5083371;28;20024;-62
2021/09/10 00:30:56;;;;;;;15.98;14.02;;;21.70;92.10;;;;;;5084152;28;20024;-61
2021/09/10 00:33:22;;;;;;;16.60;14.70;;;21.60;92.10;;;;;;5067504;28;20046;-62
2021/09/10 00:35:47;;;;;;;18.48;15.60;;;21.50;92.40;;;;;;5063787;28;20033;-61
2021/09/10 00:38:13;;;;;;;17.40;15.48;;;21.50;92.40;;;;;;5082696;28;20440;-61
2021/09/10 00:40:38;;;;;;;18.88;16.83;;;21.40;92.50;;;;;;5083372;28;20051;-63
2021/09/10 00:43:04;;;;;;;17.13;15.38;;;21.50;92.50;;;;;;5081191;28;20082;-64
2021/09/10 00:45:29;;;;;;;20.42;16.67;;;21.40;92.60;;;;;;5083087;28;20058;-62
2021/09/10 00:47:56;;;;;;;19.52;16.58;;;21.30;92.70;;;;;;5064951;28;20403;-61
2021/09/10 00:50:22;;;;;;;19.63;17.83;;;21.30;92.80;;;;;;5080382;28;20047;-62
2021/09/10 00:52:48;;;;;;;19.60;17.55;;;21.20;93.00;;;;;;5080939;28;20055;-62
2021/09/10 00:55:22;;;;;;;20.98;16.38;;;21.20;93.20;;;;;;5065065;28;20518;-61
2021/09/10 00:57:51;;;;;;;18.45;16.55;;;21.20;93.10;;;;;;5083640;28;20020;-61
2021/09/10 01:00:16;;;;;;;17.23;15.50;;;21.20;93.20;;;;;;5085234;28;20028;-62
2021/09/10 01:02:42;;;;;;;17.35;15.55;;;21.30;93.20;;;;;;5092758;28;20032;-62
2021/09/10 01:05:08;;;;;;;16.92;15.13;;;21.30;93.10;;;;;;5093049;28;20453;-62
2021/09/10 01:07:35;;;;;;;18.60;15.15;;;21.30;93.20;;;;;;5074380;28;20047;-62
2021/09/10 01:10:01;;;;;;;17.20;15.20;;;21.30;93.20;;;;;;5093156;28;20028;-61
2021/09/10 01:12:27;;;;;;;15.65;13.98;;;21.30;93.30;;;;;;5092456;28;20024;-62
2021/09/10 01:14:54;;;;;;;15.50;14.00;;;21.30;93.30;;;;;;5092315;28;20036;-62
2021/09/10 01:17:20;;;;;;;16.30;14.70;;;21.30;93.30;;;;;;5092647;28;20066;-62
2021/09/10 01:19:45;;;;;;;16.13;14.43;;;21.30;93.20;;;;;;5088619;28;20059;-62
2021/09/10 01:22:11;;;;;;;17.80;15.73;;;21.20;93.30;;;;;;5072181;28;20575;-63
2021/09/10 01:24:39;;;;;;;15.95;14.27;;;21.20;93.30;;;;;;5072367;28;20025;-61
2021/09/10 01:27:06;;;;;;;20.00;14.65;;;21.20;93.40;;;;;;5072324;28;20032;-61
2021/09/10 01:29:33;;;;;;;15.65;14.10;;;21.10;93.40;;;;;;5072233;28;20025;-63
2021/09/10 01:31:59;;;;;;;18.08;16.25;;;21.00;93.90;;;;;;5076591;28;20035;-62
2021/09/10 01:34:25;;;;;;;15.65;14.25;;;21.00;93.60;;;;;;5093107;28;20062;-63
2021/09/10 01:36:51;;;;;;;17.10;15.43;;;21.00;93.70;;;;;;5092468;28;20072;-62
2021/09/10 01:39:16;;;;;;;18.20;16.40;;;20.90;93.80;;;;;;5092250;28;20361;-62
2021/09/10 01:41:42;;;;;;;17.67;15.45;;;20.60;94.40;;;;;;5091717;28;20048;-61
2021/09/10 01:44:08;;;;;;;18.63;16.75;;;20.40;94.90;;;;;;5092244;28;20082;-62
2021/09/10 01:46:33;;;;;;;17.20;15.45;;;20.50;94.80;;;;;;5092011;28;20048;-61
2021/09/10 01:48:59;;;;;;;18.35;16.45;;;20.50;94.80;;;;;;5091979;28;20032;-62
2021/09/10 01:51:32;;;;;;;19.48;17.48;;;20.50;94.80;;;;;;5092003;28;20028;-62
2021/09/10 01:54:00;;;;;;;20.20;18.13;;;20.60;94.80;;;;;;5091646;28;20048;-62
2021/09/10 01:56:26;;;;;;;19.75;17.67;;;20.60;94.70;;;;;;5092074;28;20391;-62
2021/09/10 01:58:52;;;;;;;18.38;16.45;;;20.60;94.80;;;;;;5092264;28;20109;-62
2021/09/10 02:01:26;;;;;;;23.10;19.00;;;20.70;94.90;;;;;;5092971;28;20484;-61
2021/09/10 02:03:52;;;;;;;18.15;16.40;;;20.70;95.00;;;;;;5095854;28;20045;-62
2021/09/10 02:06:17;;;;;;;19.85;17.75;;;20.70;95.00;;;;;;5096465;28;20135;-62
2021/09/10 02:08:43;;;;;;;18.33;16.38;;;20.70;95.00;;;;;;5096201;28;20074;-62
2021/09/10 02:11:09;;;;;;;21.83;16.48;;;20.70;95.20;;;;;;5095811;28;20028;-61
2021/09/10 02:13:34;;;;;;;16.70;15.02;;;20.70;95.20;;;;;;5096169;28;20036;-61
2021/09/10 02:16:00;;;;;;;17.75;15.75;;;20.70;95.20;;;;;;5077710;28;20070;-62
2021/09/10 02:18:25;;;;;;;19.33;17.33;;;20.70;95.00;;;;;;5096041;28;20371;-62
2021/09/10 02:20:51;;;;;;;19.90;16.30;;;20.70;95.00;;;;;;5096063;28;20036;-62
2021/09/10 02:23:16;;;;;;;18.08;16.08;;;20.70;95.20;;;;;;5095650;28;20391;-62
2021/09/10 02:25:42;;;;;;;18.98;16.77;;;20.60;95.30;;;;;;5095899;28;20040;-61
2021/09/10 02:28:08;;;;;;;18.02;16.23;;;20.60;95.40;;;;;;5095944;28;20033;-61
2021/09/10 02:30:34;;;;;;;18.90;16.02;;;20.50;95.60;;;;;;5095640;28;20104;-62
2021/09/10 02:33:00;;;;;;;18.17;15.63;;;20.50;95.70;;;;;;5095449;28;20028;-62
2021/09/10 02:35:26;;;;;;;17.98;16.25;;;20.50;95.70;;;;;;5097290;28;20040;-60
2021/09/10 02:37:52;;;;;;;18.23;16.27;;;20.50;95.70;;;;;;5079233;28;20046;-63
2021/09/10 02:40:17;;;;;;;18.40;16.60;;;20.50;95.70;;;;;;5096683;28;20035;-62
2021/09/10 02:42:43;;;;;;;19.15;16.67;;;20.50;95.80;;;;;;5097197;28;20048;-62
2021/09/10 02:45:09;;;;;;;17.52;15.70;;;20.50;95.80;;;;;;5095920;28;20080;-61
2021/09/10 02:47:35;;;;;;;17.83;16.00;;;20.50;95.80;;;;;;5096964;28;20036;-62
2021/09/10 02:50:00;;;;;;;18.38;16.48;;;20.50;95.80;;;;;;5096902;28;20047;-61
2021/09/10 02:52:26;;;;;;;16.55;14.95;;;20.40;95.90;;;;;;5095677;28;20043;-62
2021/09/10 02:54:52;;;;;;;18.15;16.30;;;20.40;96.10;;;;;;5095350;28;20461;-62
2021/09/10 02:57:17;;;;;;;16.90;15.20;;;20.40;96.00;;;;;;5095498;28;20487;-62
2021/09/10 02:59:43;;;;;;;17.17;15.30;;;20.50;96.00;;;;;;5095034;28;20050;-62
2021/09/10 03:02:08;;;;;;;19.02;15.40;;;20.60;95.90;;;;;;5095227;28;20040;-62
2021/09/10 03:04:34;;;;;;;17.02;15.38;;;20.50;96.00;;;;;;5094780;28;20031;-61
2021/09/10 03:06:59;;;;;;;17.13;14.77;;;20.50;95.90;;;;;;5094769;28;20090;-61
2021/09/10 03:09:27;;;;;;;17.83;16.00;;;20.50;96.00;;;;;;5095412;28;20039;-61
2021/09/10 03:11:52;;;;;;;20.95;15.57;;;20.40;96.00;;;;;;5094640;28;20426;-62
2021/09/10 03:14:20;;;;;;;16.98;15.23;;;20.50;96.00;;;;;;5094329;28;20036;-62
2021/09/10 03:16:46;;;;;;;16.02;14.52;;;20.40;96.00;;;;;;5095316;28;20459;-61
2021/09/10 03:19:11;;;;;;;17.88;16.23;;;20.40;96.00;;;;;;5096470;28;20066;-62
2021/09/10 03:21:39;;;;;;;17.58;15.80;;;20.40;96.10;;;;;;5096154;28;20040;-61
2021/09/10 03:24:05;;;;;;;16.83;15.02;;;20.40;96.20;;;;;;5097408;28;20403;-62
2021/09/10 03:26:31;;;;;;;16.92;15.23;;;20.30;96.20;;;;;;5096200;28;20028;-62
2021/09/10 03:28:56;;;;;;;16.95;15.35;;;20.20;96.30;;;;;;5095934;28;20028;-62
2021/09/10 03:31:22;;;;;;;16.67;14.90;;;20.20;96.50;;;;;;5096159;28;20043;-62
2021/09/10 03:33:47;;;;;;;16.88;14.68;;;20.10;96.50;;;;;;5094017;28;20036;-62
2021/09/10 03:36:13;;;;;;;19.67;15.48;;;20.20;96.50;;;;;;5076384;28;20513;-60
2021/09/10 03:38:39;;;;;;;15.20;13.80;;;20.20;96.50;;;;;;5076137;28;20050;-62
2021/09/10 03:41:04;;;;;;;17.02;15.23;;;20.20;96.60;;;;;;5094359;28;20031;-62
2021/09/10 03:43:30;;;;;;;16.13;14.25;;;20.20;96.60;;;;;;5094345;28;20119;-62
2021/09/10 03:45:55;;;;;;;16.58;14.73;;;20.20;96.60;;;;;;5093535;28;20610;-62
2021/09/10 03:48:21;;;;;;;16.15;14.48;;;20.20;96.60;;;;;;5094545;28;20024;-62
2021/09/10 03:50:47;;;;;;;17.42;14.73;;;20.20;96.60;;;;;;5094655;28;20028;-61
2021/09/10 03:53:12;;;;;;;16.45;13.63;;;20.30;96.60;;;;;;5075617;28;20395;-62
2021/09/10 03:55:38;;;;;;;16.90;15.23;;;20.30;96.70;;;;;;5094160;28;20388;-61
2021/09/10 03:58:04;;;;;;;15.93;13.75;;;20.30;96.70;;;;;;5094317;28;20040;-62
2021/09/10 04:00:29;;;;;;;16.95;14.25;;;20.20;96.70;;;;;;5093828;28;20028;-62
2021/09/10 04:02:55;;;;;;;18.73;14.25;;;20.20;96.70;;;;;;5093442;28;20106;-62
2021/09/10 04:05:20;;;;;;;15.85;14.15;;;20.10;96.90;;;;;;5093752;28;20556;-62
2021/09/10 04:07:46;;;;;;;16.80;14.43;;;20.20;96.90;;;;;;5094030;28;20028;-61
2021/09/10 04:10:12;;;;;;;19.55;14.60;;;20.00;97.30;;;;;;5093895;28;20055;-62
2021/09/10 04:12:37;;;;;;;18.65;14.25;;;19.90;97.50;;;;;;5093556;28;20617;-62
2021/09/10 04:15:04;;;;;;;20.70;14.35;;;19.80;98.00;;;;;;5093914;28;20040;-62
2021/09/10 04:17:29;;;;;;;17.38;14.82;;;19.80;98.10;;;;;;5093528;28;20027;-62
2021/09/10 04:19:55;;;;;;;15.57;13.85;;;19.70;98.40;;;;;;5093152;28;20028;-61
2021/09/10 04:22:20;;;;;;;17.25;14.40;;;19.70;98.40;;;;;;5093088;28;20035;-61
2021/09/10 04:24:46;;;;;;;17.63;14.93;;;19.70;98.30;;;;;;5092600;28;20032;-62
2021/09/10 04:27:12;;;;;;;16.63;14.77;;;19.80;98.20;;;;;;5092900;28;20504;-62
2021/09/10 04:29:37;;;;;;;16.67;13.65;;;19.80;98.30;;;;;;5093333;28;20029;-62
2021/09/10 04:32:03;;;;;;;16.17;14.30;;;19.90;98.20;;;;;;5093309;28;20044;-62
2021/09/10 04:34:29;;;;;;;17.17;15.18;;;19.90;98.20;;;;;;5093156;28;20056;-61
2021/09/10 04:36:54;;;;;;;16.95;13.50;;;19.80;98.40;;;;;;5093338;28;20081;-62
2021/09/10 04:39:20;;;;;;;15.38;13.77;;;19.90;98.30;;;;;;5093470;28;20028;-62
2021/09/10 04:41:45;;;;;;;17.00;14.95;;;20.00;98.30;;;;;;5092616;28;20036;-61
2021/09/10 04:44:11;;;;;;;15.60;14.07;;;20.00;98.20;;;;;;5092951;28;20032;-61
2021/09/10 04:46:36;;;;;;;18.58;14.38;;;20.10;98.20;;;;;;5092866;28;20387;-61
2021/09/10 04:49:02;;;;;;;16.77;13.85;;;20.10;98.30;;;;;;5092898;28;20040;-62
2021/09/10 04:51:29;;;;;;;18.27;13.57;;;20.20;98.30;;;;;;5093137;28;20107;-61
2021/09/10 04:53:56;;;;;;;16.13;14.45;;;20.10;97.90;;;;;;5092471;28;20047;-61
2021/09/10 04:56:22;;;;;;;14.70;13.32;;;20.20;98.00;;;;;;5092815;28;20028;-61
2021/09/10 04:58:47;;;;;;;15.57;14.05;;;20.20;97.90;;;;;;5093505;28;20032;-62
2021/09/10 05:01:13;;;;;;;15.32;13.43;;;20.30;97.90;;;;;;5093012;28;20383;-62
2021/09/10 05:03:39;;;;;;;16.02;14.27;;;20.20;97.80;;;;;;5064421;28;20588;-63
2021/09/10 05:06:04;;;;;;;15.30;13.70;;;20.20;97.90;;;;;;5089524;28;20028;-61
2021/09/10 05:08:30;;;;;;;22.23;15.07;;;20.20;97.90;;;;;;5092652;28;20043;-62
2021/09/10 05:10:56;;;;;;;18.40;15.05;;;20.30;97.90;;;;;;5092685;28;20124;-61
2021/09/10 05:13:21;;;;;;;18.52;14.80;;;20.30;97.90;;;;;;5091947;28;20115;-63
2021/09/10 05:15:47;;;;;;;17.27;15.07;;;20.30;97.90;;;;;;5092586;28;20036;-63
2021/09/10 05:18:12;;;;;;;17.40;15.50;;;20.30;97.80;;;;;;5093331;28;20036;-63
2021/09/10 05:20:40;;;;;;;18.95;14.60;;;20.30;98.00;;;;;;5092963;28;20063;-62
2021/09/10 05:23:05;;;;;;;23.13;14.27;;;20.30;98.00;;;;;;5092586;28;20036;-64
2021/09/10 05:25:31;;;;;;;20.88;15.02;;;20.30;98.00;;;;;;5092340;28;20495;-63
2021/09/10 05:27:56;;;;;;;18.80;15.45;;;20.40;98.00;;;;;;5092109;28;20032;-63
2021/09/10 05:30:22;;;;;;;16.40;14.60;;;20.40;97.90;;;;;;5092498;28;20100;-60
2021/09/10 05:32:48;;;;;;;16.52;14.80;;;20.50;97.80;;;;;;5092408;28;20051;-63
2021/09/10 05:35:15;;;;;;;16.88;14.65;;;20.40;97.80;;;;;;5092553;28;20039;-62
2021/09/10 05:37:41;;;;;;;16.58;14.38;;;20.40;98.00;;;;;;5074477;28;20393;-62
2021/09/10 05:40:07;;;;;;;16.15;14.45;;;20.40;98.00;;;;;;5092509;28;20055;-60
2021/09/10 05:42:33;;;;;;;16.77;14.30;;;20.40;97.90;;;;;;5073876;28;20070;-62
2021/09/10 05:44:58;;;;;;;16.63;14.98;;;20.50;97.90;;;;;;5093125;28;20079;-61
2021/09/10 05:47:25;;;;;;;22.27;15.35;;;20.40;98.00;;;;;;5092697;28;20024;-62
2021/09/10 05:49:51;;;;;;;16.90;15.23;;;20.30;98.10;;;;;;5092933;28;20035;-60
2021/09/10 05:52:16;;;;;;;17.27;15.45;;;20.30;98.30;;;;;;5092490;28;20024;-62
2021/09/10 05:54:42;;;;;;;21.77;17.35;;;20.40;98.20;;;;;;5093454;28;20122;-62
2021/09/10 05:57:07;;;;;;;20.52;15.60;;;20.30;98.20;;;;;;5092758;28;20032;-61
2021/09/10 05:59:33;;;;;;;20.23;16.15;;;20.20;98.40;;;;;;5093099;28;20025;-61
2021/09/10 06:01:59;;;;;;;18.35;15.63;;;20.20;98.40;;;;;;5093315;28;20050;-62
2021/09/10 06:04:24;;;;;;;20.98;16.85;;;20.10;98.70;;;;;;5092690;28;20103;-62
2021/09/10 06:06:50;;;;;;;19.85;17.17;;;20.10;98.70;;;;;;5093031;28;20034;-62
2021/09/10 06:09:16;;;;;;;18.45;15.18;;;20.20;98.70;;;;;;5092795;28;20047;-62
2021/09/10 06:11:42;;;;;;;20.10;16.50;;;20.30;98.70;;;;;;5092013;28;20386;-63
2021/09/10 06:14:08;;;;;;;20.40;16.25;;;20.30;98.60;;;;;;5092640;28;20107;-63
2021/09/10 06:16:34;;;;;;;19.55;16.40;;;20.40;98.50;;;;;;5092398;28;20079;-62
2021/09/10 06:19:00;;;;;;;18.85;16.75;;;20.50;98.40;;;;;;5092196;28;20116;-63
2021/09/10 06:21:26;;;;;;;17.42;15.25;;;20.70;98.00;;;;;;5092810;28;20068;-61
2021/09/10 06:23:52;;;;;;;24.35;15.52;;;20.70;98.10;;;;;;5091980;28;20036;-62
2021/09/10 06:26:18;;;;;;;20.02;15.15;;;20.80;98.10;;;;;;5092627;28;20043;-61
2021/09/10 06:28:44;;;;;;;20.65;15.68;;;20.80;98.00;;;;;;5092734;28;20103;-61
2021/09/10 06:31:10;;;;;;;18.77;14.90;;;20.90;98.00;;;;;;5092423;28;20456;-62
2021/09/10 06:33:35;;;;;;;19.70;14.85;;;20.90;98.20;;;;;;5091998;28;20024;-63
2021/09/10 06:36:01;;;;;;;17.02;13.52;;;20.80;98.50;;;;;;5092267;28;20036;-62
2021/09/10 06:38:27;;;;;;;17.55;14.95;;;20.90;98.60;;;;;;5092209;28;20074;-61
2021/09/10 06:40:52;;;;;;;27.38;16.83;;;20.90;98.80;;;;;;5092180;28;20379;-63
2021/09/10 06:43:18;;;;;;;34.08;16.38;;;20.90;99.00;;;;;;5057078;28;20044;-62
2021/09/10 06:45:45;;;;;;;17.33;15.45;;;20.90;98.90;;;;;;5091968;28;20040;-62
2021/09/10 06:48:13;;;;;;;20.63;15.13;;;20.90;98.80;;;;;;5093069;28;20126;-64
2021/09/10 06:50:39;;;;;;;19.55;15.77;;;21.00;98.60;;;;;;5077895;28;20032;-62
2021/09/10 06:53:06;;;;;;;18.73;15.93;;;21.00;98.70;;;;;;5095498;28;20020;-62
2021/09/10 06:55:31;;;;;;;17.05;14.48;;;20.80;99.10;;;;;;5095249;28;20025;-63
2021/09/10 06:57:57;;;;;;;18.27;13.98;;;21.00;98.90;;;;;;5095862;28;20040;-63
2021/09/10 07:00:22;;;;;;;18.55;15.55;;;21.20;98.60;;;;;;5077609;28;20036;-62
2021/09/10 07:02:48;;;;;;;16.70;15.00;;;21.30;98.40;;;;;;5094768;28;20122;-62
2021/09/10 07:05:13;;;;;;;17.13;15.40;;;21.30;98.40;;;;;;5095334;28;20054;-63
2021/09/10 07:07:39;;;;;;;17.17;15.38;;;21.30;98.50;;;;;;5095141;28;20475;-62
2021/09/10 07:10:05;;;;;;;15.98;14.02;;;21.40;98.40;;;;;;5094976;28;20430;-62
2021/09/10 07:12:31;;;;;;;17.33;15.52;;;21.40;98.50;;;;;;5094942;28;20542;-62
2021/09/10 07:14:57;;;;;;;17.70;14.52;;;21.40;98.40;;;;;;5095257;28;20028;-63
2021/09/10 07:17:23;;;;;;;20.60;16.05;;;21.50;98.40;;;;;;5095343;28;20462;-62
2021/09/10 07:19:49;;;;;;;14.77;12.70;;;21.60;98.30;;;;;;5095132;28;20067;-63
2021/09/10 07:22:14;;;;;;;15.48;13.98;;;21.60;98.30;;;;;;5094680;28;20035;-63
2021/09/10 07:24:40;;;;;;;15.48;13.50;;;21.60;98.30;;;;;;5095359;28;20079;-65
2021/09/10 07:27:06;;;;;;;15.30;13.80;;;21.40;99.10;;;;;;5094968;28;20036;-63
2021/09/10 07:29:31;;;;;;;15.45;13.70;;;21.40;98.90;;;;;;5094995;28;20016;-62
2021/09/10 07:31:57;;;;;;;15.25;13.65;;;21.40;99.20;;;;;;5094455;28;20024;-62
2021/09/10 07:34:23;;;;;;;19.20;15.40;;;21.50;99.00;;;;;;5094277;28;20028;-63
2021/09/10 07:36:49;;;;;;;21.23;15.18;;;21.50;98.90;;;;;;5095231;28;20032;-62
2021/09/10 07:39:20;;;;;;;18.48;14.27;;;21.60;98.80;;;;;;5095387;28;20036;-63
2021/09/10 07:41:46;;;;;;;15.82;13.93;;;21.60;98.90;;;;;;5095031;28;20089;-60
2021/09/10 07:44:14;;;;;;;15.98;13.85;;;21.60;98.80;;;;;;5096037;28;20114;-63
2021/09/10 07:46:43;;;;;;;15.90;14.30;;;21.70;98.80;;;;;;5094958;28;20036;-62
2021/09/10 07:49:09;;;;;;;15.25;12.88;;;21.70;98.90;;;;;;5077405;28;20051;-62
2021/09/10 07:51:36;;;;;;;17.48;13.27;;;21.80;99.00;;;;;;5095047;28;20031;-61
2021/09/10 07:54:03;;;;;;;31.38;16.13;;;21.90;98.70;;;;;;5094557;28;20036;-62
2021/09/10 07:56:29;;;;;;;28.70;14.93;;;21.90;98.90;;;;;;5095002;28;20062;-63
2021/09/10 07:58:54;;;;;;;22.50;15.25;;;21.80;98.80;;;;;;5094638;28;20027;-63
2021/09/10 08:01:20;;;;;;;15.60;13.98;;;21.80;98.90;;;;;;5093771;28;20085;-62
2021/09/10 08:03:46;;;;;;;18.10;13.50;;;21.70;99.00;;;;;;5094277;28;20035;-61
2021/09/10 08:06:11;;;;;;;19.42;14.07;;;21.80;99.10;;;;;;5093420;28;20040;-61
2021/09/10 08:08:37;;;;;;;20.98;13.68;;;21.90;98.90;;;;;;5094255;28;20434;-61
2021/09/10 08:11:04;;;;;;;20.38;13.60;;;22.00;98.80;;;;;;5094698;28;20439;-61
2021/09/10 08:13:30;;;;;;;19.63;13.77;;;21.90;98.80;;;;;;5094044;28;20112;-60
2021/09/10 08:15:56;;;;;;;23.85;14.15;;;21.90;98.80;;;;;;5094135;28;20077;-61
2021/09/10 08:18:21;;;;;;;15.48;13.23;;;22.10;98.70;;;;;;5075583;28;20119;-61
2021/09/10 08:20:47;;;;;;;21.33;14.18;;;22.10;98.40;;;;;;5093847;28;20525;-60
2021/09/10 08:23:12;;;;;;;17.38;14.07;;;22.20;98.20;;;;;;5093414;28;20059;-60
2021/09/10 08:25:38;;;;;;;16.77;12.38;;;22.30;97.90;;;;;;5093594;28;20040;-60
2021/09/10 08:28:04;;;;;;;16.00;14.05;;;22.50;97.80;;;;;;5075283;28;20046;-61
2021/09/10 08:30:29;;;;;;;16.27;14.60;;;22.40;97.60;;;;;;5093584;28;20027;-63
2021/09/10 08:32:55;;;;;;;17.23;15.13;;;22.30;98.10;;;;;;5096924;28;20036;-67
2021/09/10 08:35:21;;;;;;;17.83;15.35;;;22.40;97.90;;;;;;5096165;28;20020;-60
2021/09/10 08:37:47;;;;;;;16.88;14.82;;;22.40;98.10;;;;;;5075218;28;20106;-61
2021/09/10 08:40:13;;;;;;;19.42;15.85;;;22.50;97.80;;;;;;5093173;28;20054;-59
2021/09/10 08:42:39;;;;;;;17.27;15.45;;;22.50;97.60;;;;;;5092819;28;20134;-59
2021/09/10 08:45:06;;;;;;;16.48;14.88;;;22.60;97.60;;;;;;5093293;28;20123;-61
2021/09/10 08:47:32;;;;;;;18.38;14.63;;;22.50;97.90;;;;;;5093086;28;20506;-64
2021/09/10 08:49:58;;;;;;;24.30;16.50;;;22.60;97.90;;;;;;5092695;28;20035;-61
2021/09/10 08:52:23;;;;;;;19.95;15.45;;;22.60;98.20;;;;;;5092706;28;20032;-59
2021/09/10 08:54:49;;;;;;;28.48;15.45;;;22.50;98.10;;;;;;5092782;28;20475;-62
2021/09/10 08:57:15;;;;;;;17.95;15.27;;;22.70;98.10;;;;;;5092980;28;20052;-61
2021/09/10 08:59:41;;;;;;;17.58;14.98;;;22.60;98.10;;;;;;5075368;28;20067;-61
2021/09/10 09:02:07;;;;;;;21.23;15.55;;;22.80;98.00;;;;;;5092948;28;20039;-59
2021/09/10 09:04:35;;;;;;;16.85;14.60;;;22.90;97.70;;;;;;5092718;28;20479;-59
2021/09/10 09:07:02;;;;;;;22.92;16.50;;;23.00;97.50;;;;;;5092444;28;20571;-54
2021/09/10 09:09:42;;;;;;;15.50;13.90;;;23.10;97.20;;;;;;5092990;28;20032;-56
2021/09/10 09:12:11;;;;;;;16.13;14.43;;;23.20;97.00;;;;;;5091589;28;20032;-57
2021/09/10 09:14:57;;;;;;;17.23;13.82;;;23.30;96.90;;;;;;5093142;28;20074;-59
2021/09/10 09:17:38;;;;;;;14.73;11.98;;;23.50;96.30;;;;;;5095492;28;20032;-58
2021/09/10 09:20:25;;;;;;;14.93;13.32;;;23.80;96.20;;;;;;5073036;28;20036;-58
2021/09/10 09:23:06;;;;;;;18.63;13.10;;;24.10;95.10;;;;;;5072685;28;20029;-56
2021/09/10 09:25:38;;;;;;;15.60;12.10;;;24.20;95.20;;;;;;5073735;28;20040;-62
2021/09/10 09:28:22;;;;;;;14.55;11.20;;;24.40;94.60;;;;;;5074595;28;20488;-61
2021/09/10 09:30:53;;;;;;;13.87;12.40;;;24.30;94.40;;;;;;5072861;28;20414;-61
2021/09/10 09:33:22;;;;;;;13.18;11.77;;;24.30;94.30;;;;;;5084186;28;20036;-62
2021/09/10 09:35:50;;;;;;;15.23;12.90;;;24.20;94.40;;;;;;5092562;28;20034;-62
2021/09/10 09:38:19;;;;;;;13.88;12.35;;;24.20;94.40;;;;;;5092642;28;20055;-61
2021/09/10 09:40:51;;;;;;;14.02;12.65;;;24.20;94.60;;;;;;5092837;28;20111;-62
2021/09/10 09:43:21;;;;;;;14.40;12.18;;;24.30;94.70;;;;;;5092121;28;20028;-62
2021/09/10 09:45:51;;;;;;;14.15;12.82;;;24.20;95.00;;;;;;5093339;28;20030;-63
2021/09/10 09:48:18;;;;;;;13.88;11.25;;;24.20;95.00;;;;;;5092588;28;20052;-63
2021/09/10 09:50:45;;;;;;;14.25;12.52;;;24.20;94.90;;;;;;5092578;28;20123;-59
2021/09/10 09:53:12;;;;;;;15.45;12.23;;;24.40;94.30;;;;;;5092102;28;20042;-60
2021/09/10 09:55:39;;;;;;;12.50;11.23;;;24.40;94.00;;;;;;5092061;28;20077;-61
2021/09/10 09:58:06;;;;;;;12.10;10.85;;;24.40;94.10;;;;;;5092518;28;20480;-63
2021/09/10 10:00:37;;;;;;;12.98;11.68;;;24.60;93.90;;;;;;5092488;28;20047;-61
2021/09/10 10:03:04;;;;;;;13.68;10.95;;;24.40;93.80;;;;;;5092075;28;20032;-65
2021/09/10 10:05:31;;;;;;;14.43;11.65;;;24.50;94.10;;;;;;5092234;28;20039;-57
2021/09/10 10:08:06;;;;;;;11.88;10.60;;;24.60;93.40;;;;;;5091801;28;20040;-58
2021/09/10 10:10:43;;;;;;;12.48;11.27;;;24.70;93.50;;;;;;5091963;28;20052;-59
2021/09/10 10:13:13;;;;;;;14.75;11.90;;;24.80;93.10;;;;;;5091649;28;20502;-59
2021/09/10 10:15:44;;;;;;;12.70;10.77;;;24.90;93.00;;;;;;5092456;28;20118;-60
2021/09/10 10:18:10;;;;;;;13.02;11.10;;;25.20;92.50;;;;;;5092586;28;20036;-60
2021/09/10 10:20:44;;;;;;;12.45;11.13;;;25.40;92.20;;;;;;5092586;28;20044;-56
2021/09/10 10:23:41;;;;;;;12.10;10.85;;;25.40;92.30;;;;;;5093352;28;20514;-57
2021/09/10 10:29:02;;;;;;;15.05;9.95;;;25.60;91.20;;;;;;5089345;28;20297;-57
2021/09/10 10:31:57;;;;;;;9.15;8.25;;;25.70;91.10;;;;;;5089855;28;20036;-62
2021/09/10 10:34:23;;;;;;;11.38;8.90;;;25.60;89.10;;;;;;5089457;28;20119;-60
2021/09/10 10:36:48;;;;;;;9.38;8.02;;;25.60;89.10;;;;;;5089564;28;20497;-62
2021/09/10 10:39:28;;;;;;;13.73;8.50;;;25.60;87.20;;;;;;5089645;28;20036;-54
2021/09/10 10:41:59;;;;;;;9.18;8.10;;;25.40;88.30;;;;;;5089515;28;20302;-58
2021/09/10 10:44:30;;;;;;;8.75;7.95;;;25.50;88.10;;;;;;5090639;28;20044;-62
2021/09/10 10:47:08;;;;;;;11.25;8.20;;;25.60;86.70;;;;;;5089905;28;20040;-57
2021/09/10 10:49:42;;;;;;;8.55;7.75;;;25.70;87.40;;;;;;5089372;28;20488;-52
2021/09/10 10:52:23;;;;;;;9.35;8.23;;;25.70;87.60;;;;;;5089323;28;20020;-56
2021/09/10 10:55:25;;;;;;;9.02;7.95;;;25.80;87.40;;;;;;5088813;28;20035;-59
2021/09/10 10:57:53;;;;;;;8.38;7.55;;;25.90;86.00;;;;;;5085672;28;20044;-56
2021/09/10 11:00:47;;;;;;;9.38;7.90;;;25.90;86.50;;;;;;5087972;28;20039;-56
2021/09/10 11:04:01;;;;;;;9.70;7.70;;;25.90;86.60;;;;;;5110283;27;20173;-63
2021/09/10 11:06:28;;;;;;;8.70;7.72;;;25.90;86.60;;;;;;5111190;28;20024;-66
2021/09/10 11:08:55;;;;;;;8.20;7.43;;;25.70;84.20;;;;;;5111094;28;20028;-61
2021/09/10 11:11:24;;;;;;;8.13;7.32;;;25.70;85.40;;;;;;5110457;28;20028;-57
2021/09/10 11:13:51;;;;;;;10.05;7.57;;;25.80;85.90;;;;;;5109637;28;20027;-62
2021/09/10 11:16:28;;;;;;;12.07;8.50;;;25.90;85.60;;;;;;5109810;28;20035;-63
2021/09/10 11:18:54;;;;;;;8.68;7.85;;;26.00;84.80;;;;;;5110153;28;20032;-58
2021/09/10 11:21:26;;;;;;;10.80;7.20;;;26.10;85.00;;;;;;5110127;28;20047;-57
2021/09/10 11:23:52;;;;;;;8.75;7.40;;;26.10;86.10;;;;;;5109873;28;20032;-58
2021/09/10 11:26:17;;;;;;;10.40;8.00;;;26.00;86.90;;;;;;5109103;28;20036;-60
2021/09/10 11:28:44;;;;;;;10.43;9.30;;;26.20;86.70;;;;;;5110150;28;20566;-62
2021/09/10 11:31:09;;;;;;;18.00;8.68;;;26.30;86.90;;;;;;5109878;28;20076;-67
2021/09/10 11:33:43;;;;;;;9.52;8.60;;;26.30;86.90;;;;;;5109919;28;20059;-61
2021/09/10 11:36:09;;;;;;;9.18;8.23;;;26.40;86.40;;;;;;5110524;28;20372;-56
2021/09/10 11:38:34;;;;;;;10.95;9.57;;;26.50;86.70;;;;;;5110087;28;20043;-52
2021/09/10 11:41:05;;;;;;;12.10;8.73;;;26.50;85.80;;;;;;5109558;28;20433;-52
2021/09/10 11:43:34;;;;;;;10.43;9.32;;;26.50;85.20;;;;;;5109454;28;20112;-55
2021/09/10 11:46:05;;;;;;;10.00;9.07;;;26.40;86.00;;;;;;5109847;28;20395;-58
2021/09/10 11:48:37;;;;;;;9.93;8.93;;;26.30;87.00;;;;;;5109248;28;20387;-55
2021/09/10 11:51:13;;;;;;;14.43;9.23;;;26.50;86.90;;;;;;5109008;28;20081;-55
2021/09/10 11:53:45;;;;;;;10.63;8.88;;;26.40;86.70;;;;;;5108746;28;20372;-55
2021/09/10 11:56:12;;;;;;;10.63;8.93;;;26.60;86.80;;;;;;5109052;28;20122;-55
2021/09/10 11:58:40;;;;;;;12.27;9.90;;;26.80;86.10;;;;;;5108004;28;20032;-51
2021/09/10 12:01:19;;;;;;;11.05;9.98;;;26.90;85.50;;;;;;5109269;28;20047;-58
2021/09/10 12:03:57;;;;;;;16.15;10.02;;;26.80;84.70;;;;;;5108686;28;20062;-69
2021/09/10 12:06:31;;;;;;;10.90;9.75;;;26.80;85.70;;;;;;5107963;28;20478;-59
2021/09/10 12:09:18;;;;;;;12.18;9.25;;;26.90;85.60;;;;;;5107867;28;20081;-63
2021/09/10 12:12:17;;;;;;;10.05;8.00;;;27.10;84.00;;;;;;5106211;28;20062;-62
2021/09/10 12:14:53;;;;;;;9.77;7.95;;;27.00;81.20;;;;;;5097684;28;20028;-62
2021/09/10 12:17:24;;;;;;;12.40;9.02;;;27.00;81.00;;;;;;5095560;28;20140;-59
2021/09/10 12:19:55;;;;;;;12.68;9.13;;;27.00;80.60;;;;;;5095161;28;20066;-60
2021/09/10 12:22:48;;;;;;;8.77;7.97;;;26.90;82.20;;;;;;5094732;28;20041;-57
2021/09/10 12:25:32;;;;;;;10.23;8.13;;;26.90;81.50;;;;;;5094022;28;20017;-59
2021/09/10 12:28:13;;;;;;;9.50;8.52;;;27.10;81.30;;;;;;5092760;28;20027;-60
2021/09/10 12:30:49;;;;;;;10.55;8.68;;;27.40;80.20;;;;;;5094472;28;20032;-63
2021/09/10 12:33:18;;;;;;;15.27;8.48;;;27.50;79.40;;;;;;5094847;28;20028;-61
2021/09/10 12:35:44;;;;;;;10.98;8.52;;;27.40;80.70;;;;;;5095199;28;20036;-60